Kirksville, MO

12:18 AM CST on January 31, 2015 (GMT -0600)
Kirksville Regional | Change Station
CLOSE
Current Station
Airport
Location: Kirksville,
Elevation: 965 ft
Nearby Weather Stations
Active Advisory: Winter Storm Watch

Elev 965 ft 40.10 °N, 92.55 °W | Updated 23 minutes ago

Overcast
Overcast
29 °F
Feels Like 22 °F
N
7
Wind Variable Wind from SSW

Today
High -- | Low -- °F
--% Chance of Precip.
Yesterday
High -- | Low -- °F
Precip. -- in
7:19 AM 5:27 PM
Waxing Gibbous, 87% visible
Pressure 30.38 in
Visibility 10.0 miles
Clouds Overcast 10000 ft
Windchill 22 °F
Dew Point 21 °F
Humidity 72%
Rainfall 0.00 in
Snow Depth Not available.
UV 0 out of 12
Pollen .10 out of 12
Air Quality Not available.
Flu Activity Not available.
METAR KIRK 310555Z AUTO 20006KT 10SM OVC100 M02/M06 A3033 RMK AO2 SLP285 T10171061 11011 21044 400221083 58015

More Conditions Fewer Conditions

Pressure 30.38 in
Visibility 10.0 miles
Clouds Overcast 10000 ft
Windchill 22 °F
Dew Point 21 °F
Humidity 72%
Rainfall 0.00 in
Snow Depth Not available.
UV 0 out of 12
Pollen .10 out of 12
Air Quality Not available.
Flu Activity Not available.
METAR KIRK 310555Z AUTO 20006KT 10SM OVC100 M02/M06 A3033 RMK AO2 SLP285 T10171061 11011 21044 400221083 58015

More Conditions Fewer Conditions

10-Day Weather Forecast

Almanac

Astronomy

Jan. 31, 2015 Rise Set
Actual Time
Civil Twilight
Nautical Twilight
Astronomical Twilight
Moon
Length of Visible Light
Length of Day
Tomorrow will be .
, % of the Moon is Illuminated

Today's Extremes

State Highs State Lows

Community

WunderPhotos

Upload Photos

1,792,013 photos uploaded!

WunderBlogs® & News

Nearby

Air Quality

  Air Quality AQ Index Pollutant
Not available.

Snow Depth

Station Depth Elevation

Earthquake Activity

City Distance Mag. Time & Date
Minimum magnitude displayed is 2.5.

Coastal Water Temperatures

Place Temperature

Nearby Weather Stations